DLH6YY EDDL-EDDF
Flight info
| Callsign | DLH6YY |
|---|---|
| Flight time | 0h 25m |
| Altitude | 21000 |
| Route | COL5Z COL T911 ROLIS ROLIS5D |
| Aircraft | A320/M-SDE3FGHIRWY/LB1 |
Departure
| Time | 2026-05-01 15:07 |
|---|---|
| Airport | Düsseldorf Airport (EDDL) |
Arrival
| Time | 2026-05-01 15:33 |
|---|---|
| Airport | Frankfurt Main Airport (EDDF) |
| Time | Latitude | Longitude | Altitude | Speed | Heading |
|---|---|---|---|---|---|
| 2026-05-01 14:33 | 51.28155 | 6.76736 | 114 ft | 0 kts | 276° |
| 2026-05-01 14:59 | 51.28153 | 6.76762 | 114 ft | 4 kts | 268° |
| 2026-05-01 14:59 | 51.28156 | 6.76804 | 116 ft | 4 kts | 265° |
| 2026-05-01 14:59 | 51.28157 | 6.76824 | 115 ft | 3 kts | 343° |
| 2026-05-01 15:00 | 51.28112 | 6.76813 | 114 ft | 0 kts | 18° |
| 2026-05-01 15:00 | 51.28112 | 6.76812 | 114 ft | 0 kts | 18° |
| 2026-05-01 15:03 | 51.28120 | 6.76817 | 115 ft | 6 kts | 18° |
| 2026-05-01 15:03 | 51.28213 | 6.76843 | 118 ft | 21 kts | 7° |
| 2026-05-01 15:03 | 51.28358 | 6.76868 | 118 ft | 20 kts | 358° |
| 2026-05-01 15:04 | 51.28464 | 6.76771 | 115 ft | 16 kts | 353° |
| 2026-05-01 15:04 | 51.28538 | 6.76876 | 118 ft | 15 kts | 54° |
| 2026-05-01 15:04 | 51.28602 | 6.77008 | 115 ft | 15 kts | 52° |
| 2026-05-01 15:04 | 51.28669 | 6.77151 | 118 ft | 18 kts | 53° |
| 2026-05-01 15:05 | 51.28760 | 6.77342 | 113 ft | 25 kts | 53° |
| 2026-05-01 15:05 | 51.28871 | 6.77576 | 116 ft | 27 kts | 52° |
| 2026-05-01 15:05 | 51.28989 | 6.77825 | 118 ft | 29 kts | 53° |
| 2026-05-01 15:05 | 51.29110 | 6.78084 | 116 ft | 30 kts | 52° |
| 2026-05-01 15:06 | 51.29239 | 6.78351 | 116 ft | 31 kts | 52° |
| 2026-05-01 15:06 | 51.29361 | 6.78573 | 116 ft | 19 kts | 15° |
| 2026-05-01 15:06 | 51.29489 | 6.78558 | 116 ft | 18 kts | 352° |
| 2026-05-01 15:06 | 51.29518 | 6.78455 | 116 ft | 11 kts | 226° |
| 2026-05-01 15:07 | 51.29414 | 6.78248 | 116 ft | 55 kts | 232° |
| 2026-05-01 15:07 | 51.29035 | 6.77451 | 118 ft | 123 kts | 233° |
| 2026-05-01 15:07 | 51.28419 | 6.76124 | 256 ft | 162 kts | 231° |
| 2026-05-01 15:07 | 51.27801 | 6.74667 | 949 ft | 160 kts | 229° |
| 2026-05-01 15:08 | 51.27151 | 6.73224 | 1628 ft | 162 kts | 227° |
| 2026-05-01 15:08 | 51.26426 | 6.71709 | 2018 ft | 182 kts | 226° |
| 2026-05-01 15:08 | 51.25602 | 6.70013 | 2340 ft | 206 kts | 228° |
| 2026-05-01 15:08 | 51.24676 | 6.68089 | 2777 ft | 230 kts | 229° |
| 2026-05-01 15:09 | 51.23655 | 6.65950 | 3301 ft | 252 kts | 227° |
| 2026-05-01 15:09 | 51.22333 | 6.64129 | 4157 ft | 252 kts | 202° |
| 2026-05-01 15:09 | 51.20653 | 6.63592 | 5016 ft | 251 kts | 175° |
| 2026-05-01 15:09 | 51.18921 | 6.64086 | 5965 ft | 254 kts | 171° |
| 2026-05-01 15:10 | 51.17159 | 6.64431 | 6910 ft | 256 kts | 174° |
| 2026-05-01 15:10 | 51.13870 | 6.66554 | 8548 ft | 271 kts | 131° |
| 2026-05-01 15:10 | 51.13086 | 6.69306 | 9383 ft | 282 kts | 101° |
| 2026-05-01 15:11 | 51.12992 | 6.72427 | 10234 ft | 287 kts | 98° |
| 2026-05-01 15:11 | 51.11012 | 6.78022 | 11004 ft | 317 kts | 136° |
| 2026-05-01 15:11 | 51.09386 | 6.80591 | 11269 ft | 338 kts | 136° |
| 2026-05-01 15:12 | 51.07704 | 6.83241 | 11817 ft | 347 kts | 136° |
| 2026-05-01 15:12 | 51.04237 | 6.88709 | 13351 ft | 353 kts | 136° |
| 2026-05-01 15:12 | 51.02483 | 6.91470 | 14077 ft | 356 kts | 135° |
| 2026-05-01 15:13 | 50.97097 | 6.99919 | 15936 ft | 368 kts | 136° |
| 2026-05-01 15:14 | 50.93426 | 7.05669 | 17131 ft | 376 kts | 136° |
| 2026-05-01 15:14 | 50.91551 | 7.08595 | 17781 ft | 379 kts | 136° |
| 2026-05-01 15:14 | 50.87742 | 7.14538 | 18934 ft | 386 kts | 136° |
| 2026-05-01 15:15 | 50.83921 | 7.20489 | 19260 ft | 386 kts | 136° |
| 2026-05-01 15:15 | 50.80056 | 7.26498 | 19275 ft | 387 kts | 136° |
| 2026-05-01 15:16 | 50.76209 | 7.32456 | 19278 ft | 391 kts | 136° |
| 2026-05-01 15:16 | 50.72325 | 7.38460 | 19280 ft | 388 kts | 136° |
| 2026-05-01 15:17 | 50.68393 | 7.44509 | 19290 ft | 408 kts | 136° |
| 2026-05-01 15:18 | 50.62213 | 7.54015 | 19287 ft | 402 kts | 136° |
| 2026-05-01 15:18 | 50.60244 | 7.57042 | 19289 ft | 391 kts | 136° |
| 2026-05-01 15:19 | 50.54292 | 7.66147 | 18602 ft | 407 kts | 136° |
| 2026-05-01 15:19 | 50.50279 | 7.72233 | 17651 ft | 401 kts | 136° |
| 2026-05-01 15:19 | 50.48273 | 7.75267 | 17178 ft | 398 kts | 136° |
| 2026-05-01 15:20 | 50.44297 | 7.81163 | 16271 ft | 389 kts | 141° |
| 2026-05-01 15:20 | 50.42068 | 7.83482 | 15822 ft | 389 kts | 152° |
| 2026-05-01 15:20 | 50.40404 | 7.84710 | 15524 ft | 389 kts | 155° |
| 2026-05-01 15:21 | 50.37135 | 7.86984 | 14924 ft | 385 kts | 155° |
| 2026-05-01 15:21 | 50.34691 | 7.88680 | 14448 ft | 382 kts | 155° |
| 2026-05-01 15:21 | 50.33081 | 7.89799 | 14138 ft | 380 kts | 155° |
| 2026-05-01 15:21 | 50.30710 | 7.91448 | 13608 ft | 361 kts | 155° |
| 2026-05-01 15:22 | 50.25688 | 7.94944 | 12424 ft | 323 kts | 155° |
| 2026-05-01 15:22 | 50.24325 | 7.95893 | 12087 ft | 322 kts | 155° |
| 2026-05-01 15:22 | 50.22274 | 7.97313 | 11584 ft | 320 kts | 155° |
| 2026-05-01 15:23 | 50.20284 | 7.98692 | 11108 ft | 306 kts | 156° |
| 2026-05-01 15:23 | 50.18375 | 8.00012 | 10614 ft | 294 kts | 156° |
| 2026-05-01 15:23 | 50.16541 | 8.01281 | 10136 ft | 283 kts | 156° |
| 2026-05-01 15:23 | 50.14770 | 8.02509 | 9607 ft | 273 kts | 156° |
| 2026-05-01 15:24 | 50.13079 | 8.03680 | 9115 ft | 265 kts | 156° |
| 2026-05-01 15:24 | 50.11417 | 8.04830 | 8603 ft | 258 kts | 156° |
| 2026-05-01 15:24 | 50.09796 | 8.05960 | 8332 ft | 246 kts | 155° |
| 2026-05-01 15:24 | 50.08304 | 8.07108 | 8297 ft | 242 kts | 154° |
| 2026-05-01 15:25 | 50.06791 | 8.08312 | 8300 ft | 244 kts | 154° |
| 2026-05-01 15:25 | 50.05309 | 8.09495 | 8278 ft | 232 kts | 154° |
| 2026-05-01 15:25 | 50.03890 | 8.10630 | 7951 ft | 230 kts | 154° |
| 2026-05-01 15:25 | 50.02452 | 8.11775 | 7501 ft | 234 kts | 153° |
| 2026-05-01 15:26 | 50.00991 | 8.12930 | 7062 ft | 237 kts | 154° |
| 2026-05-01 15:26 | 49.99448 | 8.13850 | 6629 ft | 238 kts | 162° |
| 2026-05-01 15:26 | 49.97845 | 8.14606 | 6065 ft | 241 kts | 163° |
| 2026-05-01 15:26 | 49.96321 | 8.15593 | 5514 ft | 236 kts | 143° |
| 2026-05-01 15:27 | 49.95341 | 8.17533 | 4970 ft | 233 kts | 113° |
| 2026-05-01 15:27 | 49.95019 | 8.19950 | 4645 ft | 225 kts | 93° |
| 2026-05-01 15:27 | 49.95252 | 8.22346 | 4440 ft | 225 kts | 74° |
| 2026-05-01 15:28 | 49.96331 | 8.26788 | 3885 ft | 210 kts | 73° |
| 2026-05-01 15:28 | 49.96836 | 8.28868 | 3619 ft | 200 kts | 72° |
| 2026-05-01 15:28 | 49.97309 | 8.30819 | 3385 ft | 188 kts | 72° |
| 2026-05-01 15:29 | 49.98183 | 8.34432 | 2878 ft | 172 kts | 72° |
| 2026-05-01 15:29 | 49.98602 | 8.36166 | 2649 ft | 168 kts | 72° |
| 2026-05-01 15:29 | 49.99425 | 8.39579 | 2214 ft | 169 kts | 73° |
| 2026-05-01 15:30 | 50.00230 | 8.42916 | 1767 ft | 154 kts | 72° |
| 2026-05-01 15:31 | 50.01567 | 8.48474 | 1047 ft | 131 kts | 73° |
| 2026-05-01 15:31 | 50.02202 | 8.51155 | 650 ft | 132 kts | 72° |
| 2026-05-01 15:32 | 50.02839 | 8.53779 | 353 ft | 129 kts | 73° |
| 2026-05-01 15:32 | 50.03297 | 8.55694 | 350 ft | 65 kts | 70° |
| 2026-05-01 15:33 | 50.03743 | 8.57138 | 364 ft | 30 kts | 39° |
| 2026-05-01 15:34 | 50.04041 | 8.57763 | 371 ft | 24 kts | 71° |